Time;durP1;ratioP1;P1;durP2;ratioP2;P2;SDS_P1;SDS_P2;PMS_P1;PMS_P2;Temp;Humidity;BMP_temperature;BMP_pressure;BME280_temperature;BME280_humidity;BME280_pressure;Samples;Min_cycle;Max_cycle;Signal;HPM_P1;HPM_P2
2023/10/23 00:01:38;;;;;;;5.77;4.40;;;7.90;99.90;;;;;;5010312;28;20187;-28
2023/10/23 00:04:06;;;;;;;4.70;4.00;;;7.90;99.90;;;;;;5005600;28;20275;-29
2023/10/23 00:06:32;;;;;;;5.73;4.10;;;7.80;99.90;;;;;;5027518;28;20233;-29
2023/10/23 00:08:59;;;;;;;6.43;4.20;;;7.80;99.90;;;;;;5010204;28;20182;-28
2023/10/23 00:11:29;;;;;;;4.87;3.50;;;7.80;99.90;;;;;;5003211;28;20224;-29
2023/10/23 00:13:55;;;;;;;5.37;3.77;;;7.80;99.90;;;;;;4993791;28;20179;-29
2023/10/23 00:16:21;;;;;;;4.70;3.33;;;7.80;99.90;;;;;;4997393;28;20214;-29
2023/10/23 00:18:48;;;;;;;4.00;3.33;;;7.90;99.90;;;;;;5030024;28;20269;-28
2023/10/23 00:21:16;;;;;;;5.30;3.33;;;7.90;99.90;;;;;;5011401;28;20191;-29
2023/10/23 00:23:42;;;;;;;7.07;4.00;;;7.80;99.90;;;;;;5009645;28;20210;-29
2023/10/23 00:26:08;;;;;;;5.00;3.50;;;7.80;99.90;;;;;;5001765;28;20213;-29
2023/10/23 00:28:35;;;;;;;5.67;4.00;;;7.70;99.90;;;;;;4992794;28;20194;-31
2023/10/23 00:31:01;;;;;;;6.23;4.30;;;7.60;99.90;;;;;;5001689;28;20174;-28
2023/10/23 00:33:27;;;;;;;6.53;3.47;;;7.60;99.90;;;;;;5022285;28;20292;-28
2023/10/23 00:35:54;;;;;;;5.20;3.80;;;7.60;99.90;;;;;;5027987;28;20201;-29
2023/10/23 00:38:20;;;;;;;4.70;3.57;;;7.60;99.90;;;;;;5008511;28;20179;-29
2023/10/23 00:40:46;;;;;;;5.23;3.23;;;7.50;99.90;;;;;;5009947;28;20183;-29
2023/10/23 00:43:20;;;;;;;5.87;3.77;;;7.50;99.90;;;;;;4998168;28;20238;-29
2023/10/23 00:45:54;;;;;;;4.53;3.70;;;7.50;99.90;;;;;;4997238;28;20202;-28
2023/10/23 00:48:22;;;;;;;5.23;3.50;;;7.40;99.90;;;;;;5016864;28;20184;-29
2023/10/23 00:50:49;;;;;;;5.53;4.57;;;7.40;99.90;;;;;;5033383;28;20224;-28
2023/10/23 00:53:17;;;;;;;5.73;3.57;;;7.30;99.90;;;;;;5006423;28;20240;-29
2023/10/23 00:55:46;;;;;;;6.80;4.20;;;7.30;99.90;;;;;;5029568;28;20214;-29
2023/10/23 00:58:14;;;;;;;7.83;4.13;;;7.20;99.90;;;;;;5009881;28;20199;-28
2023/10/23 01:00:43;;;;;;;5.67;4.43;;;7.10;99.90;;;;;;5021248;28;20222;-28
2023/10/23 01:03:09;;;;;;;6.00;4.10;;;7.10;99.90;;;;;;5006571;28;20292;-28
2023/10/23 01:05:36;;;;;;;5.20;4.00;;;7.10;99.90;;;;;;5003812;28;20334;-29
2023/10/23 01:08:02;;;;;;;9.17;4.90;;;7.10;99.90;;;;;;4995768;28;20183;-28
2023/10/23 01:10:28;;;;;;;7.13;4.10;;;7.10;99.90;;;;;;5010592;28;20187;-29
2023/10/23 01:12:56;;;;;;;5.37;4.23;;;7.10;99.90;;;;;;5011260;28;20199;-29
2023/10/23 01:15:22;;;;;;;4.57;3.60;;;7.00;99.90;;;;;;5012699;28;20269;-29
2023/10/23 01:17:49;;;;;;;5.57;3.70;;;7.00;99.90;;;;;;5003791;28;20186;-28
2023/10/23 01:20:17;;;;;;;6.77;3.90;;;7.00;99.90;;;;;;5009626;28;20186;-29
2023/10/23 01:22:43;;;;;;;4.53;3.30;;;7.00;99.90;;;;;;5000853;28;20207;-28
2023/10/23 01:25:13;;;;;;;4.53;3.67;;;7.00;99.90;;;;;;4994125;28;20221;-29
2023/10/23 01:27:40;;;;;;;5.90;3.67;;;7.00;99.90;;;;;;5012093;28;20187;-28
2023/10/23 01:30:08;;;;;;;6.57;3.57;;;7.00;99.90;;;;;;5012529;28;20216;-30
2023/10/23 01:32:34;;;;;;;6.27;3.67;;;6.90;99.90;;;;;;5018977;28;20250;-28
2023/10/23 01:35:00;;;;;;;4.30;3.20;;;6.90;99.90;;;;;;5029266;28;20226;-29
2023/10/23 01:37:26;;;;;;;5.60;3.57;;;6.80;99.90;;;;;;4996281;28;20192;-29
2023/10/23 01:39:52;;;;;;;7.93;3.90;;;6.80;99.90;;;;;;5011230;28;20253;-28
2023/10/23 01:42:18;;;;;;;4.33;3.27;;;6.80;99.90;;;;;;4995619;28;20210;-28
2023/10/23 01:44:44;;;;;;;6.77;3.77;;;6.70;99.90;;;;;;5012107;28;20253;-28
2023/10/23 01:47:10;;;;;;;5.47;3.93;;;6.70;99.90;;;;;;5024000;28;20187;-28
2023/10/23 01:49:35;;;;;;;7.53;3.50;;;6.70;99.90;;;;;;5010575;28;20187;-28
2023/10/23 01:52:02;;;;;;;8.40;3.83;;;6.70;99.90;;;;;;5004684;28;20217;-29
2023/10/23 01:54:27;;;;;;;6.10;3.70;;;6.70;99.90;;;;;;4999150;28;20263;-28
2023/10/23 01:56:54;;;;;;;5.70;3.80;;;6.70;99.90;;;;;;4994385;28;20187;-28
2023/10/23 01:59:20;;;;;;;5.33;3.60;;;6.70;99.90;;;;;;4995715;28;20182;-28
2023/10/23 02:01:46;;;;;;;5.40;3.83;;;6.70;99.90;;;;;;4995624;28;20218;-29
2023/10/23 02:04:12;;;;;;;7.13;3.60;;;6.70;99.90;;;;;;5029668;28;20305;-30
2023/10/23 02:06:38;;;;;;;4.63;3.20;;;6.70;99.90;;;;;;5018310;28;20191;-29
2023/10/23 02:09:05;;;;;;;4.67;3.17;;;6.60;99.90;;;;;;4994497;28;20640;-28
2023/10/23 02:11:31;;;;;;;5.93;3.10;;;6.60;99.90;;;;;;4991443;28;20176;-29
2023/10/23 02:13:57;;;;;;;6.53;3.27;;;6.60;99.90;;;;;;5026592;28;20194;-28
2023/10/23 02:16:22;;;;;;;5.97;3.30;;;6.60;99.90;;;;;;5001038;28;20227;-28
2023/10/23 02:18:48;;;;;;;3.97;2.93;;;6.60;99.90;;;;;;5010496;28;20193;-29
2023/10/23 02:21:15;;;;;;;4.10;3.10;;;6.60;99.90;;;;;;5011918;28;20233;-28
2023/10/23 02:23:41;;;;;;;5.27;3.43;;;6.60;99.90;;;;;;5001008;28;20237;-29
2023/10/23 02:26:06;;;;;;;4.40;3.00;;;6.60;99.90;;;;;;4997542;28;20234;-28
2023/10/23 02:28:32;;;;;;;4.67;3.33;;;6.60;99.90;;;;;;4995453;28;20172;-30
2023/10/23 02:31:05;;;;;;;5.03;3.00;;;6.60;99.90;;;;;;4996417;28;20213;-28
2023/10/23 02:33:30;;;;;;;4.57;3.07;;;6.50;99.90;;;;;;4994359;28;20186;-28
2023/10/23 02:35:56;;;;;;;4.13;3.10;;;6.50;99.90;;;;;;5011983;28;20206;-29
2023/10/23 02:38:23;;;;;;;4.00;3.10;;;6.40;99.90;;;;;;4994851;28;20179;-29
2023/10/23 02:40:53;;;;;;;4.33;2.80;;;6.40;99.90;;;;;;5005985;28;20231;-29
2023/10/23 02:43:19;;;;;;;4.87;3.03;;;6.40;99.90;;;;;;4993929;28;20213;-29
2023/10/23 02:45:45;;;;;;;5.13;3.03;;;6.40;99.90;;;;;;4993318;28;20202;-29
2023/10/23 02:48:12;;;;;;;5.67;3.07;;;6.40;99.90;;;;;;5012695;28;20186;-29
2023/10/23 02:50:37;;;;;;;5.07;3.00;;;6.30;99.90;;;;;;5017948;28;20197;-29
2023/10/23 02:53:06;;;;;;;3.73;3.07;;;6.30;99.90;;;;;;5010869;28;20193;-28
2023/10/23 02:55:32;;;;;;;3.30;2.97;;;6.20;99.90;;;;;;4994312;28;20297;-29
2023/10/23 02:57:58;;;;;;;5.13;3.47;;;6.10;99.90;;;;;;5009659;28;20273;-28
2023/10/23 03:00:24;;;;;;;5.80;4.10;;;6.00;99.90;;;;;;4994457;28;20191;-29
2023/10/23 03:02:50;;;;;;;5.00;3.97;;;6.00;99.90;;;;;;5017142;28;20201;-29
2023/10/23 03:05:17;;;;;;;5.83;3.20;;;5.90;99.90;;;;;;5013050;28;20213;-29
2023/10/23 03:07:43;;;;;;;3.17;2.80;;;6.00;99.90;;;;;;4998430;28;20178;-28
2023/10/23 03:10:10;;;;;;;4.27;3.70;;;5.90;99.90;;;;;;4992781;28;20186;-28
2023/10/23 03:12:35;;;;;;;6.13;4.00;;;5.90;99.90;;;;;;5011140;28;20191;-28
2023/10/23 03:15:03;;;;;;;6.20;4.07;;;5.80;99.90;;;;;;5019196;28;20228;-29
2023/10/23 03:17:30;;;;;;;4.43;3.67;;;5.80;99.90;;;;;;5015771;28;20186;-29
2023/10/23 03:19:56;;;;;;;4.17;3.47;;;5.90;99.90;;;;;;4993893;28;20195;-29
2023/10/23 03:22:22;;;;;;;7.43;3.93;;;5.90;99.90;;;;;;5012774;28;20217;-28
2023/10/23 03:24:48;;;;;;;5.43;3.73;;;5.90;99.90;;;;;;5009900;28;20252;-30
2023/10/23 03:27:13;;;;;;;4.03;3.27;;;5.90;99.90;;;;;;4992594;28;20187;-28
2023/10/23 03:29:43;;;;;;;6.13;4.33;;;5.90;99.90;;;;;;4994123;28;20206;-29
2023/10/23 03:32:09;;;;;;;9.47;4.93;;;5.80;99.90;;;;;;4994390;28;20249;-30
2023/10/23 03:34:37;;;;;;;5.27;4.43;;;5.70;99.90;;;;;;5010858;28;20970;-29
2023/10/23 03:37:03;;;;;;;7.73;4.23;;;5.50;99.90;;;;;;5008201;28;20186;-28
2023/10/23 03:39:30;;;;;;;5.07;4.10;;;5.40;99.90;;;;;;4991774;28;20182;-29
2023/10/23 03:41:56;;;;;;;7.63;4.80;;;5.40;99.90;;;;;;5009456;28;20273;-28
2023/10/23 03:44:23;;;;;;;10.53;5.60;;;5.40;99.90;;;;;;5009472;28;20242;-29
2023/10/23 03:46:54;;;;;;;8.40;5.60;;;5.40;99.90;;;;;;5009801;28;20187;-28
2023/10/23 03:49:21;;;;;;;8.27;5.30;;;5.40;99.90;;;;;;5008394;28;20197;-29
2023/10/23 03:51:50;;;;;;;9.00;4.93;;;5.40;99.90;;;;;;5010011;28;20197;-29
2023/10/23 03:54:20;;;;;;;8.30;5.47;;;5.50;99.90;;;;;;5028430;28;20693;-29
2023/10/23 03:56:46;;;;;;;5.73;4.50;;;5.50;99.90;;;;;;5011030;28;20255;-29
2023/10/23 03:59:12;;;;;;;7.23;4.93;;;5.50;99.90;;;;;;5005334;28;20178;-29
2023/10/23 04:01:38;;;;;;;6.83;4.83;;;5.40;99.90;;;;;;4991904;28;20213;-29
2023/10/23 04:04:04;;;;;;;9.20;4.30;;;5.40;99.90;;;;;;5007416;28;20240;-30
2023/10/23 04:06:30;;;;;;;5.83;4.50;;;5.30;99.90;;;;;;4989832;28;20202;-30
2023/10/23 04:08:56;;;;;;;7.47;4.50;;;5.30;99.90;;;;;;4986579;28;20200;-29
2023/10/23 04:11:22;;;;;;;8.43;3.97;;;5.30;99.90;;;;;;5007041;28;20281;-29
2023/10/23 04:13:48;;;;;;;6.63;4.13;;;5.30;99.90;;;;;;5007956;28;20219;-29
2023/10/23 04:16:15;;;;;;;8.13;4.30;;;5.30;99.90;;;;;;5008584;28;20287;-29
2023/10/23 04:18:42;;;;;;;9.27;4.90;;;5.20;99.90;;;;;;4998901;28;20232;-28
2023/10/23 04:21:10;;;;;;;13.37;4.97;;;5.10;99.90;;;;;;5008249;28;20193;-29
2023/10/23 04:23:37;;;;;;;21.67;6.13;;;5.10;99.90;;;;;;4993281;28;20205;-29
2023/10/23 04:26:03;;;;;;;21.00;5.43;;;5.10;99.90;;;;;;5008772;28;20201;-29
2023/10/23 04:28:33;;;;;;;23.00;5.30;;;5.00;99.90;;;;;;5008905;28;20204;-29
2023/10/23 04:30:59;;;;;;;13.87;5.33;;;5.00;99.90;;;;;;4993442;28;20185;-29
2023/10/23 04:33:25;;;;;;;19.33;5.33;;;5.00;99.90;;;;;;5000133;28;20190;-29
2023/10/23 04:35:56;;;;;;;5.80;4.20;;;5.00;99.90;;;;;;5011856;28;20208;-29
2023/10/23 04:38:24;;;;;;;10.30;6.80;;;5.00;99.90;;;;;;5010021;28;20187;-29
2023/10/23 04:40:50;;;;;;;8.30;5.30;;;5.00;99.90;;;;;;5006723;28;20190;-29
2023/10/23 04:43:16;;;;;;;6.00;4.23;;;5.00;99.90;;;;;;4993459;28;20332;-29
2023/10/23 04:45:43;;;;;;;7.83;4.93;;;5.00;99.90;;;;;;5005726;28;20208;-29
2023/10/23 04:48:09;;;;;;;6.80;4.47;;;5.00;99.90;;;;;;5029676;28;20189;-29
2023/10/23 04:50:39;;;;;;;6.63;4.70;;;5.00;99.90;;;;;;5011734;28;20268;-30
2023/10/23 04:53:06;;;;;;;3.97;3.57;;;5.00;99.90;;;;;;4992822;28;20220;-30
2023/10/23 04:55:40;;;;;;;3.77;3.33;;;5.00;99.90;;;;;;5013982;28;20203;-29
2023/10/23 04:58:07;;;;;;;3.93;3.47;;;4.90;99.90;;;;;;4993070;28;20221;-30
2023/10/23 05:00:38;;;;;;;5.90;3.90;;;4.90;99.90;;;;;;5008818;28;20185;-30
2023/10/23 05:03:04;;;;;;;3.83;3.17;;;4.90;99.90;;;;;;5011886;28;20221;-29
2023/10/23 05:05:31;;;;;;;4.83;3.13;;;4.90;99.90;;;;;;5009434;28;20269;-29
2023/10/23 05:07:57;;;;;;;4.77;2.97;;;4.90;99.90;;;;;;5014774;28;20661;-29
2023/10/23 05:10:23;;;;;;;3.73;2.90;;;4.90;99.90;;;;;;5018040;28;20194;-29
2023/10/23 05:12:49;;;;;;;3.63;3.00;;;4.80;99.90;;;;;;5009333;28;20316;-29
2023/10/23 05:15:17;;;;;;;5.47;3.37;;;4.80;99.90;;;;;;5001082;28;20349;-29
2023/10/23 05:17:43;;;;;;;7.43;4.00;;;4.70;99.90;;;;;;5011559;28;20185;-29
2023/10/23 05:20:09;;;;;;;6.70;4.80;;;4.70;99.90;;;;;;5009335;28;20235;-29
2023/10/23 05:22:35;;;;;;;13.30;4.77;;;4.70;99.90;;;;;;4995603;28;20350;-29
2023/10/23 05:25:01;;;;;;;20.90;4.60;;;4.70;99.90;;;;;;5021583;28;20286;-29
2023/10/23 05:27:27;;;;;;;14.90;4.80;;;4.60;99.90;;;;;;5009136;28;20238;-29
2023/10/23 05:29:52;;;;;;;6.53;3.63;;;4.70;99.90;;;;;;4996228;28;20188;-29
2023/10/23 05:32:18;;;;;;;8.63;4.40;;;4.60;99.90;;;;;;5020950;28;20214;-29
2023/10/23 05:34:44;;;;;;;7.40;4.53;;;4.70;99.90;;;;;;5010399;28;20211;-29
2023/10/23 05:37:11;;;;;;;4.63;3.77;;;4.70;99.90;;;;;;5011474;28;20207;-29
2023/10/23 05:39:37;;;;;;;4.63;3.73;;;4.70;99.90;;;;;;4994147;28;20208;-30
2023/10/23 05:42:03;;;;;;;5.23;4.73;;;4.60;99.90;;;;;;4996873;28;20189;-30
2023/10/23 05:44:29;;;;;;;8.13;7.33;;;4.60;99.90;;;;;;5013760;28;20209;-29
2023/10/23 05:46:55;;;;;;;4.20;3.80;;;4.40;99.90;;;;;;5016415;28;20245;-29
2023/10/23 05:49:20;;;;;;;5.20;3.50;;;4.30;99.90;;;;;;5013948;28;20178;-29
2023/10/23 05:51:47;;;;;;;4.43;3.33;;;4.20;99.90;;;;;;5014502;28;20184;-29
2023/10/23 05:54:13;;;;;;;3.40;3.10;;;4.10;99.90;;;;;;4996560;28;20210;-29
2023/10/23 05:56:39;;;;;;;2.97;2.67;;;4.10;99.90;;;;;;5011021;28;20192;-28
2023/10/23 05:59:04;;;;;;;3.43;3.10;;;4.10;99.90;;;;;;5011650;28;20207;-29
2023/10/23 06:01:30;;;;;;;4.33;3.70;;;4.10;99.90;;;;;;4996766;28;20233;-28
2023/10/23 06:03:56;;;;;;;5.07;3.30;;;4.20;99.90;;;;;;5011665;28;20207;-29
2023/10/23 06:06:22;;;;;;;5.20;3.60;;;4.20;99.90;;;;;;4996104;28;20249;-28
2023/10/23 06:08:48;;;;;;;4.63;3.73;;;4.10;99.90;;;;;;4999871;28;20175;-28
2023/10/23 06:11:14;;;;;;;5.10;3.97;;;4.10;99.90;;;;;;5003754;28;20183;-28
2023/10/23 06:13:40;;;;;;;21.77;12.57;;;4.10;99.90;;;;;;4994992;28;20207;-28
2023/10/23 06:16:07;;;;;;;13.70;10.07;;;4.10;99.90;;;;;;5010245;28;20315;-29
2023/10/23 06:18:37;;;;;;;9.53;6.43;;;4.10;99.90;;;;;;4995420;28;20184;-28
2023/10/23 06:21:06;;;;;;;7.70;5.43;;;4.20;99.90;;;;;;5009705;28;20186;-28
2023/10/23 06:23:37;;;;;;;6.47;4.90;;;4.30;99.90;;;;;;5029791;28;20210;-28
2023/10/23 06:26:08;;;;;;;5.77;4.20;;;4.40;99.90;;;;;;4999415;28;20203;-29
2023/10/23 06:28:34;;;;;;;5.40;4.50;;;4.50;99.90;;;;;;5010256;28;20214;-29
2023/10/23 06:31:07;;;;;;;4.80;3.83;;;4.60;99.90;;;;;;4995231;28;20184;-28
2023/10/23 06:33:35;;;;;;;8.53;4.00;;;4.60;99.90;;;;;;5021612;28;20183;-29
2023/10/23 06:36:01;;;;;;;13.37;4.70;;;4.60;99.90;;;;;;5014827;28;20216;-28
2023/10/23 06:38:27;;;;;;;14.40;5.50;;;4.60;99.90;;;;;;5004650;28;20211;-29
2023/10/23 06:40:53;;;;;;;8.73;5.33;;;4.70;99.90;;;;;;5010320;28;20233;-29
2023/10/23 06:43:18;;;;;;;14.43;5.63;;;4.60;99.90;;;;;;5002882;28;20208;-28
2023/10/23 06:45:44;;;;;;;9.40;6.03;;;4.70;99.90;;;;;;5010716;28;20200;-29
2023/10/23 06:48:10;;;;;;;8.87;5.23;;;4.70;99.90;;;;;;4995138;28;20216;-29
2023/10/23 06:50:38;;;;;;;9.20;5.27;;;4.80;99.90;;;;;;5010379;28;20208;-28
2023/10/23 06:53:03;;;;;;;6.40;5.10;;;4.80;99.90;;;;;;4994745;28;20205;-29
2023/10/23 06:55:29;;;;;;;7.20;5.13;;;4.80;99.90;;;;;;5006165;28;20222;-29
2023/10/23 06:57:55;;;;;;;6.77;4.67;;;4.90;99.90;;;;;;4994776;28;20185;-29
2023/10/23 07:00:21;;;;;;;5.90;4.47;;;4.90;99.90;;;;;;4994393;28;20191;-29
2023/10/23 07:02:50;;;;;;;4.87;4.27;;;4.90;99.90;;;;;;4993572;28;20226;-28
2023/10/23 07:05:16;;;;;;;5.67;4.57;;;4.90;99.90;;;;;;5010867;28;20198;-29
2023/10/23 07:07:43;;;;;;;23.20;15.17;;;5.00;99.90;;;;;;5013189;28;20186;-29
2023/10/23 07:10:09;;;;;;;9.33;7.33;;;5.00;99.90;;;;;;5008513;28;20226;-29
2023/10/23 07:12:35;;;;;;;7.23;6.10;;;5.00;99.90;;;;;;5010930;28;20224;-28
2023/10/23 07:15:02;;;;;;;5.67;5.10;;;5.10;99.90;;;;;;4996557;28;20245;-29
2023/10/23 07:17:29;;;;;;;4.30;3.80;;;5.20;99.90;;;;;;5010650;28;20229;-29
2023/10/23 07:19:54;;;;;;;4.60;3.70;;;5.20;99.90;;;;;;5014207;28;20190;-29
2023/10/23 07:22:20;;;;;;;4.30;3.90;;;5.30;99.90;;;;;;5030392;28;20198;-29
2023/10/23 07:24:46;;;;;;;6.07;4.17;;;5.40;99.90;;;;;;5011287;28;20216;-29
2023/10/23 07:27:15;;;;;;;5.77;4.20;;;5.50;99.90;;;;;;5010109;28;20189;-29
2023/10/23 07:29:44;;;;;;;5.37;3.97;;;5.60;99.90;;;;;;4994029;28;20226;-29
2023/10/23 07:32:10;;;;;;;5.47;4.00;;;5.70;99.90;;;;;;5000510;28;20300;-29
2023/10/23 07:34:35;;;;;;;5.50;3.50;;;5.70;99.90;;;;;;5012577;28;20301;-29
2023/10/23 07:37:03;;;;;;;4.83;3.90;;;5.80;99.90;;;;;;5010709;28;20312;-29
2023/10/23 07:39:29;;;;;;;9.03;4.30;;;5.90;99.90;;;;;;5019120;28;20183;-29
2023/10/23 07:41:55;;;;;;;7.30;4.17;;;6.00;99.90;;;;;;5009693;28;20198;-29
2023/10/23 07:44:21;;;;;;;7.13;3.80;;;6.00;99.90;;;;;;5017750;28;20214;-29
2023/10/23 07:46:46;;;;;;;8.63;3.63;;;6.00;99.90;;;;;;5030158;28;20202;-28
2023/10/23 07:49:13;;;;;;;4.63;3.60;;;6.10;99.90;;;;;;5003307;28;20182;-29
2023/10/23 07:51:39;;;;;;;4.07;3.40;;;6.20;99.90;;;;;;4993243;28;20183;-29
2023/10/23 07:54:05;;;;;;;3.47;3.17;;;6.30;99.90;;;;;;4992443;28;20191;-29
2023/10/23 07:56:30;;;;;;;4.20;3.80;;;6.20;99.90;;;;;;4993196;28;20210;-29
2023/10/23 07:58:56;;;;;;;3.53;3.23;;;6.20;99.90;;;;;;4993826;28;20197;-29
2023/10/23 08:01:22;;;;;;;5.70;4.30;;;6.20;99.90;;;;;;4994272;28;20229;-29
2023/10/23 08:03:48;;;;;;;6.30;4.20;;;6.30;99.90;;;;;;5030546;28;20218;-29
2023/10/23 08:06:15;;;;;;;6.47;3.40;;;6.40;99.90;;;;;;4993963;28;20207;-29
2023/10/23 08:08:41;;;;;;;3.57;3.27;;;6.40;99.90;;;;;;4995286;28;20262;-29
2023/10/23 08:11:09;;;;;;;5.40;3.57;;;6.40;99.90;;;;;;5018926;28;20189;-29
2023/10/23 08:13:35;;;;;;;7.07;4.10;;;6.50;99.90;;;;;;5010027;28;20197;-28
2023/10/23 08:16:03;;;;;;;3.63;3.33;;;6.50;99.90;;;;;;5022234;28;20226;-29
2023/10/23 08:18:29;;;;;;;5.00;3.37;;;6.60;99.90;;;;;;5023363;28;20190;-29
2023/10/23 08:20:55;;;;;;;6.67;3.87;;;6.60;99.90;;;;;;5009963;28;20209;-29
2023/10/23 08:23:21;;;;;;;5.80;3.60;;;6.70;99.90;;;;;;5000778;28;20213;-29
2023/10/23 08:25:47;;;;;;;5.00;4.13;;;6.80;99.90;;;;;;5005042;28;20507;-29
2023/10/23 08:28:13;;;;;;;4.90;4.30;;;6.80;99.90;;;;;;5008831;28;20182;-29
2023/10/23 08:30:39;;;;;;;4.57;3.40;;;6.90;99.90;;;;;;5007296;28;20218;-29
2023/10/23 08:33:05;;;;;;;8.53;3.60;;;7.00;99.90;;;;;;5018414;28;20201;-29
2023/10/23 08:35:32;;;;;;;5.20;3.90;;;7.00;99.90;;;;;;5000214;28;20273;-29
2023/10/23 08:37:58;;;;;;;5.13;3.47;;;7.00;99.90;;;;;;4997420;28;20186;-29
2023/10/23 08:40:24;;;;;;;5.00;3.60;;;7.20;99.90;;;;;;5007651;28;20192;-29
2023/10/23 08:42:50;;;;;;;4.33;3.90;;;7.30;99.90;;;;;;5008298;28;20211;-29
2023/10/23 08:45:16;;;;;;;4.70;3.53;;;7.30;99.90;;;;;;4992895;28;20210;-29
2023/10/23 08:47:43;;;;;;;4.60;3.30;;;7.40;99.90;;;;;;5017559;28;20271;-29
2023/10/23 08:50:10;;;;;;;6.23;3.90;;;7.40;99.90;;;;;;5009420;28;20210;-28
2023/10/23 08:52:49;;;;;;;6.97;3.70;;;7.40;99.90;;;;;;4992965;28;20191;-29
2023/10/23 08:55:17;;;;;;;8.17;3.57;;;7.50;99.90;;;;;;4992194;28;20211;-29
2023/10/23 08:57:51;;;;;;;3.53;3.23;;;7.50;99.90;;;;;;5008796;28;20191;-28
2023/10/23 09:00:17;;;;;;;4.07;3.37;;;7.60;99.90;;;;;;5016597;28;20245;-29
2023/10/23 09:02:43;;;;;;;6.97;3.60;;;7.70;99.90;;;;;;5009521;28;20222;-29
2023/10/23 09:05:08;;;;;;;5.50;3.83;;;7.70;99.90;;;;;;5013087;28;20337;-29
2023/10/23 09:07:35;;;;;;;4.70;3.90;;;7.80;99.90;;;;;;5022650;28;20229;-29
2023/10/23 09:10:04;;;;;;;6.10;4.60;;;7.90;99.90;;;;;;5014285;28;20183;-29
2023/10/23 09:12:35;;;;;;;8.83;4.00;;;7.90;99.90;;;;;;4996346;28;20209;-29
2023/10/23 09:15:17;;;;;;;5.70;4.63;;;7.90;99.90;;;;;;5017986;28;20249;-29
2023/10/23 09:17:44;;;;;;;4.37;3.93;;;7.90;99.90;;;;;;5016351;28;20214;-29
2023/10/23 09:20:23;;;;;;;5.20;4.30;;;8.00;99.90;;;;;;4991557;28;20184;-30
2023/10/23 09:22:49;;;;;;;6.13;4.23;;;8.10;99.90;;;;;;5015019;28;20207;-29
2023/10/23 09:25:17;;;;;;;5.47;3.83;;;8.20;99.90;;;;;;5018069;28;20207;-29
2023/10/23 09:27:43;;;;;;;7.03;4.10;;;8.30;99.90;;;;;;5012894;28;20279;-29
2023/10/23 09:30:10;;;;;;;4.87;3.80;;;8.40;99.90;;;;;;5025453;28;20226;-29
2023/10/23 09:32:37;;;;;;;4.10;3.70;;;8.40;99.90;;;;;;5007765;28;20183;-29
2023/10/23 09:35:04;;;;;;;4.50;3.80;;;8.50;99.90;;;;;;5002747;28;20233;-30
2023/10/23 09:37:30;;;;;;;7.43;3.77;;;8.50;99.90;;;;;;5003986;28;20178;-29
2023/10/23 09:40:08;;;;;;;5.07;3.43;;;8.60;99.90;;;;;;5032147;28;20191;-30
2023/10/23 09:42:34;;;;;;;5.17;4.33;;;8.70;99.90;;;;;;5008539;28;20830;-29
2023/10/23 09:45:04;;;;;;;5.27;4.10;;;8.80;99.90;;;;;;5015504;28;20203;-29
2023/10/23 09:47:31;;;;;;;4.73;3.63;;;8.90;99.90;;;;;;5016207;28;20179;-30
2023/10/23 09:49:58;;;;;;;5.97;3.70;;;9.00;99.90;;;;;;5025540;28;20205;-30
2023/10/23 09:52:26;;;;;;;4.17;3.63;;;9.00;99.90;;;;;;5027238;28;20171;-29
2023/10/23 09:55:11;;;;;;;5.37;3.90;;;9.00;99.90;;;;;;5033259;28;20190;-29
2023/10/23 09:57:49;;;;;;;5.17;3.57;;;9.10;99.90;;;;;;5008961;28;20179;-29
2023/10/23 10:00:17;;;;;;;5.30;3.63;;;9.20;99.90;;;;;;4996034;28;20179;-30
2023/10/23 10:02:58;;;;;;;6.23;3.80;;;9.30;99.90;;;;;;5012782;28;20279;-30
2023/10/23 10:05:57;;;;;;;5.30;4.47;;;9.40;99.90;;;;;;4994979;28;20237;-30
2023/10/23 10:08:26;;;;;;;4.70;4.10;;;9.40;99.90;;;;;;4996008;28;20183;-30
2023/10/23 10:10:53;;;;;;;5.53;4.10;;;9.50;99.90;;;;;;5010466;28;20178;-30
2023/10/23 10:13:20;;;;;;;7.87;5.77;;;9.70;99.90;;;;;;5013119;28;20183;-30
2023/10/23 10:15:49;;;;;;;7.53;4.90;;;9.80;99.90;;;;;;5004305;28;20241;-29
2023/10/23 10:18:16;;;;;;;7.87;4.47;;;10.00;99.90;;;;;;5031780;28;20192;-30
2023/10/23 10:20:47;;;;;;;7.40;4.00;;;10.10;99.90;;;;;;5005479;28;20179;-30
2023/10/23 10:23:17;;;;;;;5.23;3.37;;;10.30;99.90;;;;;;5011961;28;20235;-30
2023/10/23 10:25:48;;;;;;;5.90;3.80;;;10.40;99.90;;;;;;4994340;28;20215;-30
2023/10/23 10:28:14;;;;;;;5.13;3.43;;;10.40;99.90;;;;;;5011664;28;20218;-30
2023/10/23 10:30:40;;;;;;;5.00;3.57;;;10.60;99.90;;;;;;4994818;28;20180;-29
2023/10/23 10:33:15;;;;;;;5.57;3.87;;;10.60;99.90;;;;;;5007466;28;20201;-29
2023/10/23 10:35:49;;;;;;;4.23;3.80;;;10.80;99.90;;;;;;5002807;28;20228;-29
2023/10/23 10:38:21;;;;;;;4.37;3.57;;;10.90;99.90;;;;;;5011562;28;20203;-30
2023/10/23 10:40:59;;;;;;;7.20;3.70;;;11.00;99.90;;;;;;5004061;28;20224;-30
2023/10/23 10:43:28;;;;;;;6.10;3.70;;;11.00;99.90;;;;;;5011082;28;20444;-30
2023/10/23 10:45:55;;;;;;;5.43;3.40;;;10.90;99.90;;;;;;5021461;28;20239;-30
2023/10/23 10:48:27;;;;;;;4.87;3.27;;;10.90;99.90;;;;;;5006821;28;20185;-29
2023/10/23 10:50:54;;;;;;;4.97;3.67;;;11.00;99.90;;;;;;5011438;28;20251;-30
2023/10/23 10:53:23;;;;;;;4.53;3.50;;;11.10;99.90;;;;;;5008681;28;20281;-30
2023/10/23 10:55:49;;;;;;;4.70;3.23;;;11.20;99.90;;;;;;5022448;28;20208;-30
2023/10/23 10:58:16;;;;;;;3.23;2.90;;;11.30;99.90;;;;;;4994226;28;20189;-29
2023/10/23 11:00:42;;;;;;;4.80;3.40;;;11.30;99.90;;;;;;5011500;28;20194;-30
2023/10/23 11:03:09;;;;;;;5.27;3.17;;;11.40;99.90;;;;;;5009942;28;20211;-30
2023/10/23 11:05:37;;;;;;;7.53;3.70;;;11.40;99.90;;;;;;5015040;28;20210;-29
2023/10/23 11:08:04;;;;;;;4.70;3.77;;;11.40;99.90;;;;;;5030482;28;20178;-30
2023/10/23 11:10:30;;;;;;;4.83;3.50;;;11.30;99.90;;;;;;5007925;28;20184;-29
2023/10/23 11:12:55;;;;;;;5.17;3.67;;;11.40;99.90;;;;;;5010859;28;20183;-30
2023/10/23 11:15:21;;;;;;;5.20;3.93;;;11.40;99.90;;;;;;5010781;28;20221;-30
2023/10/23 11:17:47;;;;;;;5.13;4.10;;;11.50;99.90;;;;;;5011778;28;20185;-29
2023/10/23 11:20:15;;;;;;;6.83;4.10;;;11.60;99.90;;;;;;5002650;28;20277;-30
2023/10/23 11:22:47;;;;;;;6.17;4.13;;;11.60;99.90;;;;;;5018465;28;20290;-29
2023/10/23 11:25:14;;;;;;;5.27;3.63;;;11.60;99.90;;;;;;5010215;28;20214;-30
2023/10/23 11:27:40;;;;;;;5.03;4.00;;;11.60;99.90;;;;;;5015409;28;20237;-30
2023/10/23 11:30:07;;;;;;;6.73;4.53;;;11.60;99.90;;;;;;5008984;28;20186;-30
2023/10/23 11:32:34;;;;;;;9.30;5.00;;;11.50;99.90;;;;;;4994428;28;20182;-30
2023/10/23 11:35:05;;;;;;;4.63;3.87;;;11.50;99.90;;;;;;4996838;28;20235;-30
2023/10/23 11:37:42;;;;;;;6.23;4.13;;;11.50;99.90;;;;;;5009999;28;20270;-30
2023/10/23 11:40:10;;;;;;;8.23;4.57;;;11.50;99.90;;;;;;4999843;28;20184;-30
2023/10/23 11:42:47;;;;;;;5.77;3.60;;;11.50;99.90;;;;;;5002393;28;20217;-30
2023/10/23 11:45:19;;;;;;;6.43;4.40;;;11.50;99.90;;;;;;5015199;28;20211;-30
2023/10/23 11:47:46;;;;;;;6.17;4.23;;;11.50;99.90;;;;;;5018484;28;20190;-30
2023/10/23 11:50:13;;;;;;;5.00;3.97;;;11.40;99.90;;;;;;5018741;28;20182;-31
2023/10/23 11:52:48;;;;;;;7.17;4.10;;;11.50;99.90;;;;;;5030076;28;20190;-30
2023/10/23 11:55:15;;;;;;;6.67;4.37;;;11.60;99.90;;;;;;5003004;28;20241;-31
2023/10/23 11:57:45;;;;;;;4.80;3.53;;;11.60;99.90;;;;;;5011613;28;20216;-30
2023/10/23 12:00:13;;;;;;;7.73;3.83;;;11.70;99.90;;;;;;5010237;28;20194;-30
2023/10/23 12:02:43;;;;;;;5.47;3.50;;;11.80;99.90;;;;;;5018685;28;20292;-30
2023/10/23 12:05:12;;;;;;;7.77;3.80;;;11.80;99.90;;;;;;5006534;28;20257;-30
2023/10/23 12:07:43;;;;;;;4.23;3.67;;;11.80;99.90;;;;;;5009463;28;20175;-30
2023/10/23 12:10:10;;;;;;;5.07;4.00;;;11.90;99.90;;;;;;5017425;28;20178;-30
2023/10/23 12:12:41;;;;;;;5.20;3.83;;;11.90;99.90;;;;;;5002583;28;20274;-30
2023/10/23 12:15:11;;;;;;;6.23;4.20;;;11.90;99.90;;;;;;5010181;28;20352;-30
2023/10/23 12:17:42;;;;;;;5.73;3.87;;;11.80;99.90;;;;;;4999846;28;20202;-30
2023/10/23 12:20:12;;;;;;;6.47;3.90;;;11.80;99.90;;;;;;5017334;28;20186;-31
2023/10/23 12:22:46;;;;;;;5.17;4.07;;;11.80;99.90;;;;;;5015730;28;20293;-30
2023/10/23 12:25:13;;;;;;;6.47;3.97;;;11.80;99.90;;;;;;4998619;28;20327;-30
2023/10/23 12:27:40;;;;;;;5.43;3.90;;;11.80;99.90;;;;;;5009793;28;20239;-31
2023/10/23 12:30:07;;;;;;;5.80;3.67;;;11.80;99.90;;;;;;5010626;28;20183;-31
2023/10/23 12:32:34;;;;;;;4.10;3.70;;;11.80;99.90;;;;;;4996906;28;20210;-30
2023/10/23 12:35:03;;;;;;;4.83;3.70;;;11.90;99.90;;;;;;5005171;28;20226;-30
2023/10/23 12:37:32;;;;;;;4.93;3.40;;;11.90;99.90;;;;;;4992751;28;20210;-30
2023/10/23 12:40:03;;;;;;;3.93;3.30;;;11.90;99.90;;;;;;5017601;28;20183;-30
2023/10/23 12:42:29;;;;;;;7.50;4.20;;;11.90;99.90;;;;;;5019829;28;20212;-30
2023/10/23 12:44:55;;;;;;;5.60;3.53;;;11.90;99.90;;;;;;5001937;28;20206;-31
2023/10/23 12:47:24;;;;;;;5.40;3.80;;;11.90;99.90;;;;;;5007634;28;20194;-29
2023/10/23 12:49:50;;;;;;;6.03;3.60;;;11.90;99.90;;;;;;5011449;28;20183;-30
2023/10/23 12:52:15;;;;;;;5.83;3.80;;;12.00;99.90;;;;;;5010819;28;20278;-30
2023/10/23 12:54:41;;;;;;;5.70;3.60;;;12.10;99.90;;;;;;5001205;28;20202;-30
2023/10/23 12:57:07;;;;;;;5.13;3.57;;;12.10;99.90;;;;;;5012418;28;20191;-30